Time;durP1;ratioP1;P1;durP2;ratioP2;P2;SDS_P1;SDS_P2;PMS_P1;PMS_P2;Temp;Humidity;BMP_temperature;BMP_pressure;BME280_temperature;BME280_humidity;BME280_pressure;Samples;Min_cycle;Max_cycle;Signal;HPM_P1;HPM_P2
2021/11/17 02:31:45;;;;;;;5.30;2.95;;;5.70;99.90;;;;;;6724723;88;20715;-79
2021/11/17 02:42:23;;;;;;;6.75;3.50;;;5.60;99.90;;;;;;6721730;88;20240;-79
2021/11/17 02:52:57;;;;;;;7.28;3.55;;;5.60;99.90;;;;;;6719288;88;20189;-79
2021/11/17 03:03:00;;;;;;;5.93;3.55;;;5.60;99.90;;;;;;6709848;88;20245;-79
2021/11/17 03:13:38;;;;;;;6.78;3.90;;;5.70;99.90;;;;;;6708853;88;20202;-78
2021/11/17 03:23:54;;;;;;;8.95;4.25;;;5.50;99.90;;;;;;6711242;88;20657;-80
2021/11/17 03:34:08;;;;;;;8.33;4.17;;;5.60;99.90;;;;;;6716487;88;20187;-79
2021/11/17 03:44:20;;;;;;;13.90;5.07;;;5.60;99.90;;;;;;6711993;88;20193;-81
2021/11/17 03:54:29;;;;;;;8.85;4.47;;;5.60;99.90;;;;;;6715836;88;20235;-79
2021/11/17 04:04:57;;;;;;;11.12;5.65;;;5.60;99.90;;;;;;6712097;88;20215;-81
2021/11/17 04:15:17;;;;;;;11.85;5.35;;;5.60;99.90;;;;;;6714653;88;20298;-81
2021/11/17 04:25:46;;;;;;;12.52;5.95;;;5.60;99.90;;;;;;6711693;88;20297;-80
2021/11/17 04:36:03;;;;;;;14.25;6.22;;;5.60;99.90;;;;;;6709772;88;20177;-80
2021/11/17 04:46:29;;;;;;;12.85;6.45;;;5.80;99.90;;;;;;6711273;88;20319;-80
2021/11/17 04:56:41;;;;;;;15.27;7.03;;;5.90;99.90;;;;;;6714225;88;20729;-80
2021/11/17 05:06:42;;;;;;;13.88;6.78;;;5.80;99.90;;;;;;6690702;88;20253;-80
2021/11/17 05:17:20;;;;;;;12.90;6.82;;;5.80;99.90;;;;;;6694981;88;20727;-79
2021/11/17 05:27:26;;;;;;;15.07;7.20;;;6.10;99.90;;;;;;6720421;88;20219;-79
2021/11/17 05:37:31;;;;;;;14.02;6.60;;;6.10;99.90;;;;;;6720446;88;20200;-80
2021/11/17 05:48:13;;;;;;;15.85;6.85;;;6.00;99.90;;;;;;6720151;88;20178;-80
2021/11/17 05:59:01;;;;;;;13.98;6.05;;;6.10;99.90;;;;;;6720758;88;20187;-79
2021/11/17 06:09:01;;;;;;;14.95;5.97;;;5.90;99.90;;;;;;6709041;88;20218;-79
2021/11/17 06:19:02;;;;;;;12.98;5.93;;;6.10;99.90;;;;;;6720166;88;20211;-79
2021/11/17 06:29:28;;;;;;;11.48;5.30;;;6.20;99.90;;;;;;6723949;88;20208;-78
2021/11/17 06:39:31;;;;;;;15.00;5.67;;;5.90;99.90;;;;;;6706366;88;20249;-79
2021/11/17 06:49:31;;;;;;;13.77;6.05;;;5.80;99.90;;;;;;6686209;88;20754;-79
2021/11/17 06:59:32;;;;;;;17.23;7.18;;;5.80;99.90;;;;;;6687721;88;20338;-79
2021/11/17 07:09:33;;;;;;;17.25;7.55;;;5.80;99.90;;;;;;6698162;88;20205;-77
2021/11/17 07:19:33;;;;;;;14.93;6.72;;;5.60;99.90;;;;;;6725941;88;20177;-78
2021/11/17 07:29:34;;;;;;;14.15;6.07;;;5.50;99.90;;;;;;6728553;88;20248;-79
2021/11/17 07:39:36;;;;;;;16.23;6.32;;;5.60;99.90;;;;;;6726253;88;20685;-78
2021/11/17 07:49:37;;;;;;;12.50;5.28;;;5.80;99.90;;;;;;6719103;88;20774;-78
2021/11/17 07:59:40;;;;;;;7.85;3.70;;;6.10;99.90;;;;;;6730701;88;20189;-79
2021/11/17 08:09:42;;;;;;;12.13;4.10;;;6.30;99.90;;;;;;6718914;88;20205;-79
2021/11/17 08:19:43;;;;;;;9.00;3.47;;;6.40;99.90;;;;;;6721026;88;20207;-80
2021/11/17 08:30:24;;;;;;;10.30;4.43;;;6.40;99.90;;;;;;6737710;77;20193;-77
2021/11/17 08:40:38;;;;;;;11.23;4.62;;;6.40;99.90;;;;;;6733278;88;20321;-77
2021/11/17 08:50:39;;;;;;;8.55;4.07;;;6.50;99.90;;;;;;6731496;88;20172;-76
2021/11/17 09:00:41;;;;;;;9.63;3.95;;;6.70;99.90;;;;;;6730409;88;20294;-76
2021/11/17 09:10:46;;;;;;;9.20;3.50;;;6.90;99.90;;;;;;6722428;88;20226;-77
2021/11/17 09:20:48;;;;;;;9.77;4.20;;;7.10;99.90;;;;;;6731478;88;20189;-76
2021/11/17 09:30:50;;;;;;;8.73;3.67;;;7.50;99.90;;;;;;6714445;88;20206;-77
2021/11/17 09:40:58;;;;;;;8.27;3.92;;;7.50;99.90;;;;;;6712960;88;20320;-76
2021/11/17 09:51:06;;;;;;;9.65;4.40;;;7.60;99.90;;;;;;6725855;88;20208;-77
2021/11/17 10:01:21;;;;;;;8.23;3.75;;;7.70;99.90;;;;;;6714677;88;20248;-77
2021/11/17 10:21:44;;;;;;;7.55;3.70;;;7.80;99.90;;;;;;6712222;88;20378;-76
2021/11/17 10:31:54;;;;;;;8.98;3.65;;;7.80;99.90;;;;;;6723447;88;20206;-79
2021/11/17 10:42:04;;;;;;;7.50;3.47;;;8.10;99.90;;;;;;6728026;88;20206;-78
2021/11/17 10:52:08;;;;;;;6.57;3.20;;;8.10;99.90;;;;;;6727816;88;20194;-76
2021/11/17 11:02:11;;;;;;;11.23;4.28;;;8.20;99.90;;;;;;6728677;88;20185;-77
2021/11/17 11:12:15;;;;;;;11.48;3.95;;;8.10;99.90;;;;;;6724861;88;20330;-77
2021/11/17 11:22:17;;;;;;;11.95;4.97;;;7.90;99.90;;;;;;6724945;88;20277;-77
2021/11/17 11:32:17;;;;;;;8.85;4.12;;;8.00;99.90;;;;;;6716964;88;20203;-77
2021/11/17 11:42:32;;;;;;;9.75;4.75;;;8.10;99.90;;;;;;6711588;88;20321;-76
2021/11/17 11:52:36;;;;;;;11.73;5.28;;;8.10;99.90;;;;;;6709270;88;20242;-78
2021/11/17 12:02:59;;;;;;;12.35;5.70;;;8.20;99.90;;;;;;6715376;88;20192;-78
2021/11/17 12:13:17;;;;;;;13.02;5.62;;;8.30;99.90;;;;;;6716944;88;20181;-79
2021/11/17 12:23:25;;;;;;;10.93;5.40;;;8.40;99.90;;;;;;6717152;88;20192;-77
2021/11/17 12:33:52;;;;;;;12.48;5.18;;;8.40;99.90;;;;;;6717064;88;20604;-78
2021/11/17 12:44:02;;;;;;;11.50;5.20;;;8.30;99.90;;;;;;6713311;88;20734;-78
2021/11/17 12:54:10;;;;;;;13.38;5.00;;;8.40;99.90;;;;;;6714913;88;20347;-79
2021/11/17 13:04:13;;;;;;;9.60;4.90;;;8.50;99.90;;;;;;6718145;88;20220;-77
2021/11/17 13:14:20;;;;;;;11.55;4.87;;;8.50;99.90;;;;;;6720237;88;20232;-79
2021/11/17 13:24:21;;;;;;;9.63;4.65;;;8.50;99.90;;;;;;6735203;88;20194;-78
2021/11/17 13:34:35;;;;;;;9.27;4.87;;;8.70;99.90;;;;;;6733945;88;20211;-77
2021/11/17 13:44:36;;;;;;;10.05;4.87;;;8.80;99.90;;;;;;6731315;88;20308;-77
2021/11/17 13:54:37;;;;;;;10.27;5.07;;;8.80;99.90;;;;;;6725745;88;20212;-77
2021/11/17 14:04:38;;;;;;;9.55;4.82;;;8.80;99.90;;;;;;6726449;88;20226;-79
2021/11/17 14:14:39;;;;;;;11.85;5.30;;;9.00;99.90;;;;;;6724034;88;20333;-77
2021/11/17 14:24:39;;;;;;;10.75;5.12;;;8.90;99.90;;;;;;6725066;77;20214;-77
2021/11/17 14:34:40;;;;;;;10.83;5.50;;;8.90;99.90;;;;;;6728978;88;20197;-78
2021/11/17 14:44:42;;;;;;;11.52;5.70;;;8.70;99.90;;;;;;6737137;88;20578;-78
2021/11/17 14:54:43;;;;;;;13.32;6.00;;;8.70;99.90;;;;;;6725082;88;20214;-77
2021/11/17 15:04:44;;;;;;;12.00;5.40;;;8.70;99.90;;;;;;6719492;88;20353;-77
2021/11/17 15:14:46;;;;;;;10.82;5.72;;;8.70;99.90;;;;;;6701510;88;20601;-76
2021/11/17 15:24:47;;;;;;;12.75;6.53;;;8.60;99.90;;;;;;6718943;88;20366;-76
2021/11/17 15:34:49;;;;;;;18.87;8.65;;;8.70;99.90;;;;;;6715777;88;20232;-76
2021/11/17 15:44:49;;;;;;;24.25;10.30;;;8.80;99.90;;;;;;6718710;88;20200;-76
2021/11/17 15:54:50;;;;;;;26.48;11.95;;;8.80;99.90;;;;;;6719512;88;20668;-76
2021/11/17 16:04:50;;;;;;;26.25;11.80;;;8.90;99.90;;;;;;6721428;88;20572;-76
2021/11/17 16:14:51;;;;;;;26.85;11.98;;;9.00;99.90;;;;;;6724733;88;20211;-77
2021/11/17 16:35:14;;;;;;;27.33;12.25;;;9.00;99.90;;;;;;6731245;88;20364;-78
2021/11/17 16:45:16;;;;;;;27.90;12.07;;;9.10;99.90;;;;;;6730068;88;20291;-77
2021/11/17 16:55:18;;;;;;;28.02;12.45;;;9.10;99.90;;;;;;6725920;88;20279;-77
2021/11/17 17:05:20;;;;;;;26.75;12.75;;;9.10;99.90;;;;;;6729163;88;20206;-77
2021/11/17 17:15:26;;;;;;;23.25;11.00;;;9.00;99.90;;;;;;6730404;88;20235;-77
2021/11/17 17:25:26;;;;;;;24.70;11.00;;;9.00;99.90;;;;;;6726135;88;20684;-76
2021/11/17 17:35:27;;;;;;;26.67;12.23;;;8.80;99.90;;;;;;6718297;88;20227;-76
2021/11/17 17:45:29;;;;;;;24.02;11.55;;;8.50;99.90;;;;;;6729339;88;20217;-77
2021/11/17 17:55:31;;;;;;;23.45;11.20;;;8.60;99.90;;;;;;6728322;88;20207;-79
2021/11/17 18:05:33;;;;;;;20.25;9.82;;;8.50;99.90;;;;;;6733259;88;20205;-80
2021/11/17 18:15:35;;;;;;;25.60;10.38;;;8.70;99.90;;;;;;6744693;88;20232;-81
2021/11/17 18:25:40;;;;;;;20.73;9.98;;;8.70;99.90;;;;;;6733041;88;20192;-80
2021/11/17 18:35:41;;;;;;;20.97;10.10;;;8.80;99.90;;;;;;6727136;88;20231;-80
2021/11/17 18:45:45;;;;;;;25.48;11.43;;;8.60;99.90;;;;;;6728147;88;20193;-80
2021/11/17 18:55:46;;;;;;;28.20;11.73;;;8.30;99.90;;;;;;6725165;88;20193;-78
2021/11/17 19:05:47;;;;;;;28.50;11.95;;;8.30;99.90;;;;;;6729992;88;20735;-80
2021/11/17 19:15:47;;;;;;;30.45;13.10;;;8.30;99.90;;;;;;6726909;88;20259;-80
2021/11/17 19:25:48;;;;;;;28.65;13.02;;;8.20;99.90;;;;;;6736778;88;20204;-78
2021/11/17 19:35:48;;;;;;;39.70;14.15;;;8.20;99.90;;;;;;6736685;88;20177;-80
2021/11/17 19:45:49;;;;;;;28.83;14.03;;;8.20;99.90;;;;;;6735624;88;20711;-81
2021/11/17 19:55:50;;;;;;;30.42;13.77;;;8.20;99.90;;;;;;6728904;88;20516;-77
2021/11/17 20:05:53;;;;;;;33.17;13.68;;;8.30;99.90;;;;;;6734003;88;20612;-80
2021/11/17 20:15:54;;;;;;;30.83;14.45;;;8.30;99.90;;;;;;6730402;88;20219;-78
2021/11/17 20:25:54;;;;;;;29.87;13.52;;;8.20;99.90;;;;;;6726647;88;20197;-78
2021/11/17 20:46:57;;;;;;;26.90;12.75;;;7.70;99.90;;;;;;6716015;88;20624;-77
2021/11/17 20:56:57;;;;;;;32.85;13.32;;;7.80;99.90;;;;;;6720223;88;20271;-77
2021/11/17 21:06:58;;;;;;;30.40;13.27;;;8.00;99.90;;;;;;6723215;88;20193;-77
2021/11/17 21:17:01;;;;;;;34.42;13.88;;;8.00;99.90;;;;;;6723769;88;20505;-79
2021/11/17 21:27:03;;;;;;;29.37;13.57;;;8.00;99.90;;;;;;6721847;88;20308;-77
2021/11/17 21:37:04;;;;;;;32.13;12.57;;;8.10;99.90;;;;;;6715155;88;20343;-78
2021/11/17 21:47:05;;;;;;;29.55;12.10;;;8.10;99.90;;;;;;6720538;88;20223;-77
2021/11/17 21:57:06;;;;;;;31.77;12.00;;;8.10;99.90;;;;;;6719831;88;20342;-78
2021/11/17 22:07:06;;;;;;;29.10;11.40;;;8.20;99.90;;;;;;6722532;88;20243;-79
2021/11/17 22:17:07;;;;;;;31.20;11.53;;;8.20;99.90;;;;;;6723608;88;20956;-79
2021/11/17 22:27:09;;;;;;;28.62;10.98;;;8.20;99.90;;;;;;6721286;88;20563;-77
2021/11/17 22:37:09;;;;;;;25.77;11.32;;;8.20;99.90;;;;;;6719525;88;20780;-78
2021/11/17 22:47:10;;;;;;;24.90;10.75;;;8.20;99.90;;;;;;6724865;88;20189;-79
2021/11/17 22:57:10;;;;;;;21.08;8.70;;;8.10;99.90;;;;;;6722726;88;20404;-79
2021/11/17 23:07:11;;;;;;;22.08;8.48;;;8.20;99.90;;;;;;6720550;88;20792;-79
2021/11/17 23:17:11;;;;;;;25.15;7.90;;;8.00;99.90;;;;;;6732899;88;20233;-79
2021/11/17 23:27:12;;;;;;;19.42;8.02;;;8.10;99.90;;;;;;6732226;88;20210;-77
2021/11/17 23:37:12;;;;;;;17.83;6.87;;;8.00;99.90;;;;;;6725510;88;20200;-77
2021/11/17 23:47:13;;;;;;;18.17;6.97;;;8.10;99.90;;;;;;6730756;88;20215;-77
2021/11/17 23:57:13;;;;;;;21.60;7.37;;;8.00;99.90;;;;;;6731649;88;20232;-77
